createdAt,value
2023-04-10T00:00:58.323Z,17.20
2023-04-10T00:04:34.176Z,17.80
2023-04-10T00:08:01.234Z,17.60
2023-04-10T00:11:15.182Z,18.90
2023-04-10T00:14:52.847Z,20.20
2023-04-10T00:18:05.532Z,20.50
2023-04-10T00:21:34.643Z,18.70
2023-04-10T00:24:48.852Z,17.70
2023-04-10T00:28:18.744Z,20.10
2023-04-10T00:31:34.467Z,24.70
2023-04-10T00:35:07.544Z,20.50
2023-04-10T00:38:18.934Z,22.50
2023-04-10T00:41:51.926Z,20.40
2023-04-10T00:45:18.986Z,20.60
2023-04-10T00:48:47.462Z,21.80
2023-04-10T00:52:19.434Z,24.20
2023-04-10T00:55:35.221Z,21.60
2023-04-10T00:59:07.756Z,19.10
2023-04-10T01:02:21.624Z,18.20
2023-04-10T01:05:50.737Z,25.80
2023-04-10T01:09:40.215Z,22.70
2023-04-10T01:13:41.471Z,21.00
2023-04-10T01:17:02.761Z,19.90
2023-04-10T01:20:43.767Z,19.80
2023-04-10T01:50:09.340Z,17.70
2023-04-10T01:53:28.608Z,16.00
2023-04-10T01:56:47.158Z,16.40
2023-04-10T01:59:58.239Z,17.10
2023-04-10T02:03:16.533Z,17.70
2023-04-10T02:07:03.817Z,19.00
2023-04-10T02:10:39.261Z,16.50
2023-04-10T02:14:00.170Z,16.10
2023-04-10T02:24:17.025Z,19.60
2023-04-10T02:27:20.011Z,18.10
2023-04-10T02:30:44.400Z,18.20
2023-04-10T02:34:11.146Z,16.60
2023-04-10T02:37:39.228Z,19.00
2023-04-10T02:44:25.353Z,17.60
2023-04-10T02:47:39.842Z,18.10
2023-04-10T02:51:05.523Z,19.00
2023-04-10T02:54:43.953Z,19.40
2023-04-10T03:01:14.078Z,18.20
2023-04-10T03:04:30.445Z,18.70
2023-04-10T03:07:42.680Z,18.50
2023-04-10T03:11:01.235Z,16.70
2023-04-10T03:14:38.951Z,17.00
2023-04-10T03:18:17.663Z,17.80
2023-04-10T03:21:48.409Z,18.50
2023-04-10T03:25:37.606Z,20.20
2023-04-10T03:29:13.020Z,15.80
2023-04-10T03:32:42.547Z,16.30
2023-04-10T03:36:07.598Z,21.90
2023-04-10T03:39:39.710Z,17.00
2023-04-10T03:43:15.779Z,17.00
2023-04-10T03:46:30.662Z,25.30
2023-04-10T03:50:19.858Z,22.90
2023-04-10T03:53:46.036Z,19.40
2023-04-10T03:57:19.648Z,17.40
2023-04-10T04:00:44.059Z,16.70
2023-04-10T04:04:28.406Z,20.50
2023-04-10T04:08:14.189Z,18.60
2023-04-10T04:11:42.767Z,18.80
2023-04-10T04:15:11.608Z,18.50
2023-04-10T04:19:03.008Z,17.10
2023-04-10T04:22:51.673Z,20.50
2023-04-10T04:26:49.728Z,18.00
2023-04-10T04:30:41.249Z,17.20
2023-04-10T04:34:37.892Z,17.60
2023-04-10T04:38:37.608Z,19.50
2023-04-10T04:42:09.681Z,19.10
2023-04-10T04:45:51.905Z,19.80
2023-04-10T04:56:55.751Z,20.80
2023-04-10T05:07:44.256Z,18.50
2023-04-10T05:10:59.226Z,18.30
2023-04-10T05:14:05.882Z,17.30
2023-04-10T05:17:20.256Z,18.20
2023-04-10T05:20:27.537Z,19.30
2023-04-10T05:23:28.473Z,19.70
2023-04-10T05:26:30.326Z,19.40
2023-04-10T05:29:50.620Z,19.00
2023-04-10T05:33:12.564Z,18.40
2023-04-10T05:36:29.266Z,19.30
2023-04-10T05:39:44.337Z,19.90
2023-04-10T05:42:42.106Z,19.20
2023-04-10T05:45:35.975Z,18.10
2023-04-10T05:48:55.134Z,19.20
2023-04-10T05:51:59.666Z,18.30
2023-04-10T05:55:05.732Z,18.50
2023-04-10T05:58:14.362Z,19.90
2023-04-10T06:01:10.988Z,20.20
2023-04-10T06:04:10.436Z,20.70
2023-04-10T06:07:05.393Z,19.50
2023-04-10T06:09:59.689Z,19.80
2023-04-10T06:12:57.578Z,18.10
2023-04-10T06:15:36.887Z,18.50
2023-04-10T06:21:09.444Z,20.80
2023-04-10T06:23:52.579Z,21.70
2023-04-10T06:26:30.875Z,22.30
2023-04-10T06:29:14.334Z,22.50
2023-04-10T06:31:55.247Z,22.70
2023-04-10T06:34:55.020Z,22.40
2023-04-10T06:37:50.044Z,20.60
2023-04-10T06:40:29.555Z,19.20
2023-04-10T06:43:06.540Z,18.00
2023-04-10T06:45:42.724Z,18.20
2023-04-10T06:48:31.452Z,18.10
2023-04-10T06:51:29.013Z,18.00
2023-04-10T06:54:09.218Z,18.10
2023-04-10T06:56:45.335Z,19.80
2023-04-10T06:59:23.022Z,19.00
2023-04-10T07:02:00.186Z,20.30
2023-04-10T07:04:46.679Z,18.50
2023-04-10T07:07:23.275Z,18.50
2023-04-10T07:09:59.964Z,20.00
2023-04-10T07:12:31.400Z,18.90
2023-04-10T07:15:09.142Z,19.20
2023-04-10T07:17:43.048Z,19.40
2023-04-10T07:20:14.463Z,20.00
2023-04-10T07:22:52.040Z,21.60
2023-04-10T07:25:22.164Z,22.00
2023-04-10T07:27:53.708Z,20.90
2023-04-10T07:30:25.900Z,19.80
2023-04-10T07:33:00.726Z,18.80
2023-04-10T07:35:37.613Z,18.40
2023-04-10T07:38:24.285Z,18.40
2023-04-10T07:41:26.868Z,18.60
2023-04-10T07:44:14.606Z,19.40
2023-04-10T07:46:52.603Z,19.50
2023-04-10T07:49:43.811Z,21.20
2023-04-10T07:52:32.463Z,20.90
2023-04-10T07:55:15.587Z,21.30
2023-04-10T07:58:07.534Z,21.30
2023-04-10T08:00:51.659Z,22.20
2023-04-10T08:03:41.024Z,19.60
2023-04-10T08:06:29.682Z,18.50
2023-04-10T08:09:20.690Z,19.40
2023-04-10T08:12:02.998Z,19.00
2023-04-10T08:14:52.260Z,20.10
2023-04-10T08:17:28.260Z,20.70
2023-04-10T08:20:08.573Z,21.70
2023-04-10T08:22:45.445Z,21.00
2023-04-10T08:25:22.327Z,22.30
2023-04-10T08:27:59.407Z,23.10
2023-04-10T08:30:48.548Z,21.30
2023-04-10T08:33:43.260Z,23.60
2023-04-10T08:36:22.902Z,20.70
2023-04-10T08:39:16.778Z,19.50
2023-04-10T08:41:53.044Z,19.40
2023-04-10T08:44:46.109Z,19.40
2023-04-10T08:47:39.065Z,20.40
2023-04-10T08:50:24.333Z,20.70
2023-04-10T08:53:14.922Z,21.20
2023-04-10T08:58:34.303Z,20.90
2023-04-10T09:01:12.441Z,20.60
2023-04-10T09:03:49.328Z,18.60
2023-04-10T09:06:30.874Z,17.50
2023-04-10T09:09:18.805Z,16.40
2023-04-10T09:12:04.443Z,19.80
2023-04-10T09:14:41.787Z,23.30
2023-04-10T09:20:05.558Z,17.90
2023-04-10T09:22:49.295Z,18.40
2023-04-10T09:25:39.273Z,17.80
2023-04-10T09:28:13.185Z,18.60
2023-04-10T09:30:49.348Z,19.40
2023-04-10T09:33:28.270Z,18.90
2023-04-10T09:36:04.409Z,19.20
2023-04-10T09:38:38.844Z,18.50
2023-04-10T09:41:11.018Z,18.70
2023-04-10T09:43:46.559Z,20.00
2023-04-10T09:46:26.976Z,19.20
2023-04-10T09:49:00.002Z,18.30
2023-04-10T09:51:32.474Z,17.60
2023-04-10T09:54:04.440Z,18.40
2023-04-10T09:56:37.215Z,16.70
2023-04-10T09:59:08.767Z,17.10
2023-04-10T10:01:40.115Z,18.70
2023-04-10T10:04:15.915Z,17.90
2023-04-10T10:06:45.368Z,18.30
2023-04-10T10:09:16.715Z,18.80
2023-04-10T10:11:52.873Z,16.80
2023-04-10T10:14:22.582Z,18.50
2023-04-10T10:16:51.467Z,19.30
2023-04-10T10:19:27.463Z,17.90
2023-04-10T10:21:55.865Z,16.30
2023-04-10T10:24:24.190Z,15.70
2023-04-10T10:26:52.376Z,16.80
2023-04-10T10:29:21.352Z,15.60
2023-04-10T10:31:49.863Z,17.20
2023-04-10T10:34:18.552Z,16.70
2023-04-10T10:36:46.916Z,15.80
2023-04-10T10:39:53.468Z,15.80
2023-04-10T10:42:42.014Z,17.20
2023-04-10T10:45:13.888Z,16.80
2023-04-10T10:47:49.575Z,16.60
2023-04-10T10:50:18.409Z,16.30
2023-04-10T10:52:53.134Z,16.30
2023-04-10T10:55:40.160Z,17.10
2023-04-10T10:58:09.957Z,18.20
2023-04-10T11:00:50.995Z,17.20
2023-04-10T11:03:19.588Z,15.80
2023-04-10T11:05:52.600Z,15.50
2023-04-10T11:08:49.968Z,16.00
2023-04-10T11:11:25.809Z,15.20
2023-04-10T11:13:56.465Z,15.20
2023-04-10T11:16:32.019Z,16.40
2023-04-10T11:19:14.038Z,14.70
2023-04-10T11:21:59.766Z,15.70
2023-04-10T11:24:28.674Z,13.90
2023-04-10T11:26:57.136Z,14.50
2023-04-10T11:29:28.168Z,14.60
2023-04-10T11:31:58.293Z,15.20
2023-04-10T11:34:27.795Z,13.30
2023-04-10T11:36:56.384Z,12.80
2023-04-10T11:39:26.693Z,12.90
2023-04-10T11:41:57.861Z,12.50
2023-04-10T11:44:25.949Z,11.90
2023-04-10T11:46:54.384Z,12.40
2023-04-10T11:49:29.736Z,12.20
2023-04-10T11:51:57.995Z,11.80
2023-04-10T11:54:28.334Z,11.90
2023-04-10T11:57:09.529Z,11.10
2023-04-10T11:59:37.978Z,11.40
2023-04-10T12:02:09.373Z,10.60
2023-04-10T12:04:38.488Z,10.70
2023-04-10T12:07:06.808Z,10.80
2023-04-10T12:09:34.964Z,10.70
2023-04-10T12:12:05.461Z,11.00
2023-04-10T12:14:34.487Z,11.00
2023-04-10T12:17:04.128Z,12.00
2023-04-10T12:22:03.073Z,10.70
2023-04-10T12:24:41.206Z,11.00
2023-04-10T12:27:22.493Z,9.40
2023-04-10T12:29:52.529Z,10.00
2023-04-10T12:32:21.485Z,10.80
2023-04-10T12:34:51.712Z,10.70
2023-04-10T12:37:20.934Z,9.20
2023-04-10T12:39:49.288Z,10.30
2023-04-10T12:42:19.645Z,9.20
2023-04-10T12:44:55.427Z,9.70
2023-04-10T12:47:24.679Z,9.90
2023-04-10T12:50:13.924Z,10.40
2023-04-10T12:52:45.492Z,10.00
2023-04-10T12:55:14.991Z,9.30
2023-04-10T12:57:45.131Z,9.30
2023-04-10T13:00:15.891Z,9.10
2023-04-10T13:02:45.150Z,10.00
2023-04-10T13:05:14.426Z,9.00
2023-04-10T13:07:43.013Z,9.40
2023-04-10T13:10:11.293Z,9.20
2023-04-10T13:12:40.780Z,9.30
2023-04-10T13:17:37.359Z,9.20
2023-04-10T13:20:06.643Z,9.00
2023-04-10T13:22:34.810Z,7.90
2023-04-10T13:25:04.933Z,9.80
2023-04-10T13:27:33.097Z,8.90
2023-04-10T13:30:01.379Z,8.90
2023-04-10T13:32:29.714Z,9.20
2023-04-10T13:34:57.924Z,9.20
2023-04-10T13:37:26.909Z,8.90
2023-04-10T13:39:55.194Z,9.10
2023-04-10T13:42:23.666Z,9.20
2023-04-10T13:44:51.841Z,8.30
2023-04-10T13:47:20.010Z,8.80
2023-04-10T13:49:48.192Z,9.50
2023-04-10T13:52:16.356Z,9.80
2023-04-10T13:54:44.631Z,9.70
2023-04-10T13:57:12.803Z,9.10
2023-04-10T13:59:41.388Z,9.30
2023-04-10T14:02:09.986Z,8.90
2023-04-10T14:04:38.357Z,10.20
2023-04-10T14:07:06.619Z,10.30
2023-04-10T14:09:34.891Z,10.60
2023-04-10T14:12:03.589Z,10.30
2023-04-10T14:14:31.859Z,11.00
2023-04-10T14:17:00.056Z,11.20
2023-04-10T14:19:28.300Z,11.10
2023-04-10T14:21:56.481Z,11.50
2023-04-10T14:24:24.640Z,10.90
2023-04-10T14:26:58.400Z,11.00
2023-04-10T14:29:37.280Z,10.10
2023-04-10T14:32:07.684Z,10.90
2023-04-10T14:34:36.072Z,10.50
2023-04-10T14:37:04.547Z,10.30
2023-04-10T14:39:34.046Z,10.40
2023-04-10T14:42:02.940Z,10.70
2023-04-10T14:44:31.214Z,10.50
2023-04-10T14:46:59.703Z,10.10
2023-04-10T14:49:27.870Z,11.40
2023-04-10T14:51:56.042Z,10.70
2023-04-10T14:54:24.623Z,10.60
2023-04-10T14:56:52.794Z,10.20
2023-04-10T14:59:21.380Z,11.60
2023-04-10T15:01:49.601Z,10.40
2023-04-10T15:04:18.358Z,10.10
2023-04-10T15:06:46.711Z,11.20
2023-04-10T15:09:14.986Z,10.40
2023-04-10T15:11:43.177Z,10.60
2023-04-10T15:14:12.478Z,10.30
2023-04-10T15:16:40.981Z,10.20
2023-04-10T15:19:09.223Z,10.30
2023-04-10T15:21:37.708Z,10.90
2023-04-10T15:24:06.068Z,11.30
2023-04-10T15:26:34.758Z,11.40
2023-04-10T15:29:03.754Z,11.50
2023-04-10T15:31:32.020Z,10.80
2023-04-10T15:34:00.497Z,11.10
2023-04-10T15:36:28.771Z,10.90
2023-04-10T15:38:58.380Z,10.40
2023-04-10T15:46:25.882Z,11.00
2023-04-10T15:48:54.240Z,11.10
2023-04-10T15:51:22.411Z,9.90
2023-04-10T15:53:50.789Z,11.30
2023-04-10T15:56:19.269Z,10.70
2023-04-10T15:58:47.961Z,10.60
2023-04-10T16:01:16.299Z,10.70
2023-04-10T16:03:45.745Z,10.40
2023-04-10T16:08:42.488Z,11.60
2023-04-10T16:11:10.975Z,12.10
2023-04-10T16:13:42.295Z,12.50
2023-04-10T16:16:16.134Z,11.70
2023-04-10T16:18:47.801Z,12.50
2023-04-10T16:21:16.249Z,11.70
2023-04-10T16:23:47.803Z,11.10
2023-04-10T16:26:16.378Z,11.00
2023-04-10T16:28:45.285Z,10.50
2023-04-10T16:31:13.989Z,10.40
2023-04-10T16:33:42.543Z,10.10
2023-04-10T16:36:14.001Z,11.00
2023-04-10T16:38:42.577Z,11.10
2023-04-10T16:41:17.679Z,12.40
2023-04-10T16:43:46.287Z,11.60
2023-04-10T16:46:14.981Z,12.30
2023-04-10T16:48:46.726Z,12.80
2023-04-10T16:51:18.687Z,13.30
2023-04-10T16:53:50.444Z,11.30
2023-04-10T16:56:22.095Z,13.20
2023-04-10T16:58:54.164Z,13.40
2023-04-10T17:01:31.694Z,14.30
2023-04-10T17:04:03.217Z,12.70
2023-04-10T17:06:39.772Z,13.90
2023-04-10T17:09:10.503Z,11.70
2023-04-10T17:11:47.078Z,13.40
2023-04-10T17:14:23.444Z,13.50
2023-04-10T17:16:54.829Z,12.20
2023-04-10T17:19:26.577Z,12.50
2023-04-10T17:22:00.756Z,14.40
2023-04-10T17:24:32.210Z,11.90
2023-04-10T17:27:06.630Z,11.90
2023-04-10T17:29:43.808Z,12.10
2023-04-10T17:32:21.321Z,11.90
2023-04-10T17:34:55.412Z,11.10
2023-04-10T17:37:29.519Z,11.70
2023-04-10T17:40:06.974Z,11.70
2023-04-10T17:42:43.887Z,11.80
2023-04-10T17:45:30.507Z,11.60
2023-04-10T17:48:05.085Z,11.50
2023-04-10T17:50:39.945Z,11.10
2023-04-10T17:53:16.000Z,10.10
2023-04-10T17:55:54.669Z,9.70
2023-04-10T17:58:35.690Z,9.70
2023-04-10T18:01:17.811Z,9.60
2023-04-10T18:03:54.765Z,10.00
2023-04-10T18:06:35.961Z,9.50
2023-04-10T18:09:22.043Z,11.00
2023-04-10T18:12:04.864Z,10.40
2023-04-10T18:14:54.833Z,11.40
2023-04-10T18:17:33.423Z,11.90
2023-04-10T18:20:22.726Z,13.60
2023-04-10T18:23:27.038Z,15.00
2023-04-10T18:26:07.652Z,22.20
2023-04-10T18:29:16.634Z,19.00
2023-04-10T18:32:03.756Z,16.00
2023-04-10T18:35:03.772Z,13.20
2023-04-10T18:37:48.121Z,12.60
2023-04-10T18:40:31.358Z,12.10
2023-04-10T18:43:42.403Z,12.70
2023-04-10T18:46:54.144Z,12.60
2023-04-10T18:49:53.476Z,13.40
2023-04-10T18:52:40.532Z,13.20
2023-04-10T18:55:35.534Z,11.50
2023-04-10T18:58:27.052Z,12.40
2023-04-10T19:01:20.803Z,11.40
2023-04-10T19:04:10.303Z,10.90
2023-04-10T19:07:19.936Z,10.80
2023-04-10T19:10:14.225Z,10.40
2023-04-10T19:13:09.160Z,9.10
2023-04-10T19:16:26.138Z,11.30
2023-04-10T19:19:26.569Z,10.30
2023-04-10T19:22:46.246Z,11.20
2023-04-10T19:25:44.423Z,11.00
2023-04-10T19:28:58.667Z,11.60
2023-04-10T19:32:07.701Z,13.30
2023-04-10T19:35:21.790Z,15.70
2023-04-10T19:38:21.869Z,15.50
2023-04-10T19:41:44.837Z,13.80
2023-04-10T19:45:16.196Z,14.10
2023-04-10T19:48:23.165Z,13.80
2023-04-10T19:51:44.064Z,14.50
2023-04-10T19:54:42.857Z,16.90
2023-04-10T19:57:43.313Z,18.00
2023-04-10T20:00:44.530Z,17.00
2023-04-10T20:04:06.956Z,21.40
2023-04-10T20:07:05.049Z,21.60
2023-04-10T20:10:13.161Z,19.30
2023-04-10T20:13:15.631Z,17.20
2023-04-10T20:16:43.706Z,16.50
2023-04-10T20:20:00.320Z,15.70
2023-04-10T20:23:23.411Z,14.60
2023-04-10T20:26:41.927Z,17.70
2023-04-10T20:30:02.834Z,23.50
2023-04-10T20:33:27.016Z,22.30
2023-04-10T20:36:58.267Z,20.20
2023-04-10T20:40:20.714Z,18.70
2023-04-10T20:43:45.360Z,18.30
2023-04-10T20:46:57.404Z,16.30
2023-04-10T20:50:23.946Z,16.30
2023-04-10T20:53:54.312Z,13.60
2023-04-10T20:57:17.348Z,13.60
2023-04-10T21:00:34.045Z,14.40
2023-04-10T21:04:05.954Z,15.40
2023-04-10T21:07:18.426Z,18.80
2023-04-10T21:10:58.940Z,18.30
2023-04-10T21:14:20.108Z,19.40
2023-04-10T21:17:38.073Z,17.80
2023-04-10T21:20:54.862Z,14.30
2023-04-10T21:24:03.796Z,16.60
2023-04-10T21:27:20.393Z,14.10
2023-04-10T21:30:41.608Z,15.20
2023-04-10T21:34:02.214Z,16.70
2023-04-10T21:37:12.682Z,16.60
2023-04-10T21:40:32.768Z,16.90
2023-04-10T21:43:44.763Z,19.70
2023-04-10T21:47:24.249Z,17.80
2023-04-10T21:50:29.452Z,18.80
2023-04-10T21:53:43.797Z,19.90
2023-04-10T21:57:00.198Z,80.30
2023-04-10T22:00:00.184Z,146.70
2023-04-10T22:03:22.126Z,140.70
2023-04-10T22:06:27.701Z,54.60
2023-04-10T22:09:27.923Z,114.90
2023-04-10T22:12:48.577Z,52.40
2023-04-10T22:16:08.110Z,43.50
2023-04-10T22:19:36.246Z,35.80
2023-04-10T22:22:40.192Z,27.90
2023-04-10T22:25:32.462Z,25.50
2023-04-10T22:28:45.760Z,32.30
2023-04-10T22:31:58.476Z,29.90
2023-04-10T22:35:07.415Z,39.80
2023-04-10T22:38:07.855Z,74.60
2023-04-10T22:41:06.820Z,40.80
2023-04-10T22:44:07.572Z,31.70
2023-04-10T22:47:16.387Z,30.80
2023-04-10T22:50:24.494Z,31.80
2023-04-10T22:53:23.599Z,28.40
2023-04-10T22:56:25.038Z,27.50
2023-04-10T22:59:32.223Z,28.50
2023-04-10T23:02:31.524Z,28.80
2023-04-10T23:05:34.617Z,27.40
2023-04-10T23:08:39.559Z,28.50
2023-04-10T23:11:47.455Z,31.90
2023-04-10T23:14:57.095Z,32.40
2023-04-10T23:18:08.293Z,32.80
2023-04-10T23:21:11.881Z,31.90
2023-04-10T23:24:33.928Z,31.90
2023-04-10T23:27:59.641Z,29.30
2023-04-10T23:31:01.636Z,33.90
2023-04-10T23:34:10.120Z,31.90
2023-04-10T23:37:34.820Z,27.80
2023-04-10T23:40:39.661Z,31.70
2023-04-10T23:43:44.786Z,30.50
2023-04-10T23:46:52.810Z,33.00
2023-04-10T23:50:02.950Z,32.70
2023-04-10T23:53:10.482Z,33.90
2023-04-10T23:56:24.488Z,29.90
2023-04-10T23:59:31.982Z,30.10
